KSUN/SUN METAR and TAF weather

Enter ICAO airport designator
Station Type Date Time Source
KSUN METAR 2019/02/17 14:45 UTC NOAA

KSUN 171445Z 30008KT 10SM SCT030 BKN060 M11/M13 A2981


Station Type Date Time Source
KSUN Decoded METAR 2019/02/17 14:45 UTC NOAA

Hailey, Friedman Memorial Airport, ID, United States (KSUN) 43-30N 114-18W
Feb 17, 2019 - 09:45 AM EST / 2019.02.17 1445 UTC
Wind: from the WNW (300 degrees) at 9 MPH (8 KT):0
Visibility: 10 mile(s):0
Sky conditions: mostly cloudy
Temperature: 12 F (-11 C)
Windchill: 0 F (-18 C):1
Dew Point: 8 F (-13 C)
Relative Humidity: 85%
Pressure (altimeter): 29.81 in. Hg (1009 hPa)
ob: KSUN 171445Z 30008KT 10SM SCT030 BKN060 M11/M13 A2981
cycle: 15

Station Type Date Time Source
KSUN TAF 2019/02/17 12:27 UTC NOAA

TAF KSUN 171124Z 1712/1818 30008KT P6SM FEW015 BKN080
FM171900 14008KT P6SM VCSH SCT025 SCT050
TEMPO 1801/1805 BKN015 OVC025
FM180600 33010KT P6SM SCT025 SCT050
FM181100 35008KT P6SM SCT025 OVC050
AMD LTD TO CLD VIS AND WIND TIL 171300


Example: see airport list